createdAt,value
2019-05-19T00:00:51.312Z,100191.67
2019-05-19T00:01:58.062Z,100187.67
2019-05-19T00:03:05.672Z,100191.08
2019-05-19T00:04:13.250Z,100196.55
2019-05-19T00:05:20.971Z,100187.97
2019-05-19T00:06:28.432Z,100190.18
2019-05-19T00:07:36.152Z,100195.02
2019-05-19T00:08:42.906Z,100198.98
2019-05-19T00:09:50.428Z,100195.88
2019-05-19T00:10:57.965Z,100197.45
2019-05-19T00:12:06.387Z,100197.59
2019-05-19T00:13:13.181Z,100196.70
2019-05-19T00:14:20.885Z,100200.61
2019-05-19T00:15:27.792Z,100197.58
2019-05-19T00:16:35.299Z,100194.91
2019-05-19T00:17:42.056Z,100189.67
2019-05-19T00:18:49.961Z,100188.38
2019-05-19T00:19:56.922Z,100187.16
2019-05-19T00:21:04.751Z,100186.77
2019-05-19T00:22:12.024Z,100190.42
2019-05-19T00:23:19.516Z,100183.69
2019-05-19T00:24:26.729Z,100183.75
2019-05-19T00:25:35.058Z,100180.42
2019-05-19T00:26:41.891Z,100185.05
2019-05-19T00:27:49.417Z,100180.12
2019-05-19T00:28:56.302Z,100179.36
2019-05-19T00:30:04.546Z,100180.78
2019-05-19T00:31:11.488Z,100178.80
2019-05-19T00:32:18.992Z,100180.69
2019-05-19T00:33:25.898Z,100180.56
2019-05-19T00:34:33.402Z,100176.96
2019-05-19T00:35:40.237Z,100179.27
2019-05-19T00:36:48.345Z,100175.41
2019-05-19T00:37:55.144Z,100179.63
2019-05-19T00:39:02.792Z,100179.05
2019-05-19T00:40:09.893Z,100179.87
2019-05-19T00:41:17.854Z,100175.70
2019-05-19T00:42:24.968Z,100178.55
2019-05-19T00:43:32.759Z,100173.31
2019-05-19T00:44:39.814Z,100174.50
2019-05-19T00:45:47.415Z,100173.86
2019-05-19T00:46:54.606Z,100166.60
2019-05-19T00:48:02.511Z,100174.89
2019-05-19T00:49:09.365Z,100170.56
2019-05-19T00:50:17.098Z,100171.92
2019-05-19T00:51:25.340Z,100170.88
2019-05-19T00:52:33.209Z,100169.58
2019-05-19T00:53:40.202Z,100173.25
2019-05-19T00:54:48.407Z,100173.14
2019-05-19T00:55:56.739Z,100170.83
2019-05-19T00:57:05.935Z,100167.77
2019-05-19T00:58:14.305Z,100157.37
2019-05-19T00:59:23.214Z,100170.76
2019-05-19T01:00:30.058Z,100168.19
2019-05-19T01:01:37.559Z,100170.53
2019-05-19T01:02:44.731Z,100162.75
2019-05-19T01:03:52.236Z,100168.48
2019-05-19T01:04:59.035Z,100162.80
2019-05-19T01:06:06.549Z,100169.83
2019-05-19T01:07:13.319Z,100163.16
2019-05-19T01:08:21.358Z,100162.70
2019-05-19T01:09:28.489Z,100163.88
2019-05-19T01:10:36.004Z,100163.45
2019-05-19T01:11:42.768Z,100168.31
2019-05-19T01:12:50.629Z,100163.93
2019-05-19T01:13:57.738Z,100162.06
2019-05-19T01:15:05.881Z,100165.48
2019-05-19T01:16:12.978Z,100161.80
2019-05-19T01:17:20.522Z,100163.45
2019-05-19T01:18:28.308Z,100167.25
2019-05-19T01:19:35.837Z,100165.08
2019-05-19T01:20:42.989Z,100168.84
2019-05-19T01:21:51.309Z,100161.58
2019-05-19T01:22:58.713Z,100159.34
2019-05-19T01:24:06.252Z,100164.39
2019-05-19T01:25:13.918Z,100160.93
2019-05-19T01:26:21.809Z,100164.20
2019-05-19T01:27:28.990Z,100157.64
2019-05-19T01:28:36.501Z,100158.92
2019-05-19T01:29:43.281Z,100161.56
2019-05-19T01:30:51.143Z,100160.73
2019-05-19T01:31:58.456Z,100159.05
2019-05-19T01:33:06.008Z,100162.09
2019-05-19T01:34:12.764Z,100160.47
2019-05-19T01:35:20.789Z,100163.38
2019-05-19T01:36:27.561Z,100160.04
2019-05-19T01:37:35.099Z,100161.34
2019-05-19T01:38:42.222Z,100159.31
2019-05-19T01:39:49.791Z,100153.80
2019-05-19T01:40:56.573Z,100159.99
2019-05-19T01:42:04.379Z,100158.66
2019-05-19T01:43:11.481Z,100158.07
2019-05-19T01:44:18.983Z,100153.05
2019-05-19T01:45:26.891Z,100152.98
2019-05-19T01:46:34.489Z,100154.09
2019-05-19T01:47:41.290Z,100159.35
2019-05-19T01:48:49.103Z,100155.98
2019-05-19T01:50:16.185Z,100156.53
2019-05-19T01:51:05.406Z,100154.55
2019-05-19T01:52:12.524Z,100156.19
2019-05-19T01:53:20.385Z,100156.97
2019-05-19T01:54:27.134Z,100152.41
2019-05-19T01:55:34.963Z,100152.59
2019-05-19T01:56:41.732Z,100153.38
2019-05-19T01:57:49.231Z,100153.94
2019-05-19T01:58:56.158Z,100149.75
2019-05-19T02:00:03.779Z,100153.60
2019-05-19T02:01:10.555Z,100154.00
2019-05-19T02:02:18.067Z,100152.72
2019-05-19T02:03:24.968Z,100154.71
2019-05-19T02:04:32.475Z,100152.26
2019-05-19T02:05:39.790Z,100157.57
2019-05-19T02:06:47.292Z,100152.89
2019-05-19T02:07:54.449Z,100155.52
2019-05-19T02:09:02.238Z,100149.95
2019-05-19T02:10:09.600Z,100150.44
2019-05-19T02:11:17.251Z,100148.78
2019-05-19T02:12:24.845Z,100149.73
2019-05-19T02:13:32.343Z,100147.61
2019-05-19T02:14:39.121Z,100150.89
2019-05-19T02:15:46.636Z,100146.22
2019-05-19T02:16:53.766Z,100153.46
2019-05-19T02:18:01.274Z,100152.95
2019-05-19T02:19:08.638Z,100149.69
2019-05-19T02:20:30.594Z,100154.25
2019-05-19T02:21:25.528Z,100151.69
2019-05-19T02:22:33.040Z,100150.15
2019-05-19T02:23:39.791Z,100151.66
2019-05-19T02:24:47.667Z,100146.58
2019-05-19T02:25:54.762Z,100155.27
2019-05-19T02:27:02.266Z,100153.89
2019-05-19T02:28:09.095Z,100152.36
2019-05-19T02:29:16.612Z,100150.50
2019-05-19T02:30:23.585Z,100157.32
2019-05-19T02:31:31.108Z,100149.27
2019-05-19T02:32:37.919Z,100148.91
2019-05-19T02:33:45.496Z,100151.12
2019-05-19T02:34:52.279Z,100150.30
2019-05-19T02:36:00.260Z,100146.45
2019-05-19T02:37:07.117Z,100149.95
2019-05-19T02:38:15.036Z,100152.52
2019-05-19T02:39:21.824Z,100151.55
2019-05-19T02:40:30.906Z,100144.27
2019-05-19T02:41:40.348Z,100148.52
2019-05-19T02:42:50.694Z,100142.47
2019-05-19T02:44:01.540Z,100139.02
2019-05-19T02:45:10.197Z,100144.05
2019-05-19T02:46:17.571Z,100142.31
2019-05-19T02:47:27.310Z,100141.22
2019-05-19T02:48:36.399Z,100142.51
2019-05-19T02:49:46.707Z,100147.48
2019-05-19T02:50:55.778Z,100144.96
2019-05-19T02:52:06.016Z,100151.52
2019-05-19T02:53:14.560Z,100147.87
2019-05-19T02:54:23.779Z,100147.61
2019-05-19T02:55:33.002Z,100146.64
2019-05-19T02:56:41.410Z,100149.02
2019-05-19T02:57:51.363Z,100143.88
2019-05-19T02:59:00.142Z,100147.33
2019-05-19T03:00:09.234Z,100147.84
2019-05-19T03:01:16.775Z,100149.95
2019-05-19T03:02:24.288Z,100150.88
2019-05-19T03:03:31.868Z,100153.18
2019-05-19T03:04:39.057Z,100141.80
2019-05-19T03:05:46.535Z,100145.70
2019-05-19T03:06:53.610Z,100145.75
2019-05-19T03:08:01.126Z,100139.39
2019-05-19T03:09:07.972Z,100142.93
2019-05-19T03:10:15.778Z,100140.61
2019-05-19T03:11:22.852Z,100139.91
2019-05-19T03:12:30.827Z,100132.56
2019-05-19T03:13:37.996Z,100137.99
2019-05-19T03:14:45.538Z,100138.82
2019-05-19T03:15:52.339Z,100139.48
2019-05-19T03:17:00.186Z,100135.94
2019-05-19T03:18:07.418Z,100140.51
2019-05-19T03:19:15.026Z,100133.58
2019-05-19T03:20:22.134Z,100137.38
2019-05-19T03:21:29.686Z,100139.83
2019-05-19T03:22:36.489Z,100140.14
2019-05-19T03:23:44.601Z,100133.66
2019-05-19T03:24:51.358Z,100136.17
2019-05-19T03:25:58.869Z,100140.17
2019-05-19T03:27:05.674Z,100144.79
2019-05-19T03:28:13.190Z,100146.39
2019-05-19T03:29:24.126Z,100143.39
2019-05-19T03:30:48.334Z,100142.88
2019-05-19T03:32:18.621Z,100141.19
2019-05-19T03:33:28.715Z,100147.61
2019-05-19T03:34:35.570Z,100146.73
2019-05-19T03:35:43.518Z,100145.96
2019-05-19T03:36:51.031Z,100143.91
2019-05-19T03:37:58.894Z,100134.06
2019-05-19T03:39:07.578Z,100137.03
2019-05-19T03:40:21.506Z,100134.58
2019-05-19T03:41:28.838Z,100137.09
2019-05-19T03:42:36.742Z,100133.23
2019-05-19T03:43:43.518Z,100134.32
2019-05-19T03:44:51.037Z,100133.97
2019-05-19T03:45:58.178Z,100134.95
2019-05-19T03:47:06.072Z,100133.15
2019-05-19T03:48:13.453Z,100136.83
2019-05-19T03:49:21.246Z,100132.98
2019-05-19T03:50:27.995Z,100135.91
2019-05-19T03:51:35.513Z,100130.78
2019-05-19T03:52:42.272Z,100140.48
2019-05-19T03:53:49.798Z,100134.00
2019-05-19T03:54:56.926Z,100129.69
2019-05-19T03:56:04.435Z,100136.45
2019-05-19T03:57:11.191Z,100137.22
2019-05-19T03:58:18.748Z,100139.02
2019-05-19T03:59:25.558Z,100140.96
2019-05-19T04:00:33.058Z,100135.37
2019-05-19T04:01:40.362Z,100138.64
2019-05-19T04:02:47.888Z,100129.46
2019-05-19T04:03:54.983Z,100131.57
2019-05-19T04:05:02.935Z,100130.23
2019-05-19T04:06:09.867Z,100127.91
2019-05-19T04:07:17.778Z,100127.83
2019-05-19T04:08:24.732Z,100126.27
2019-05-19T04:09:32.545Z,100130.44
2019-05-19T04:10:39.299Z,100126.53
2019-05-19T04:11:46.822Z,100126.78
2019-05-19T04:12:54.266Z,100121.65
2019-05-19T04:14:01.788Z,100122.98
2019-05-19T04:15:09.722Z,100120.73
2019-05-19T04:16:17.273Z,100120.08
2019-05-19T04:17:24.031Z,100118.03
2019-05-19T04:18:31.535Z,100127.56
2019-05-19T04:19:38.595Z,100127.98
2019-05-19T04:20:46.247Z,100130.89
2019-05-19T04:21:53.346Z,100132.32
2019-05-19T04:23:00.853Z,100130.78
2019-05-19T04:24:07.626Z,100133.17
2019-05-19T04:25:15.233Z,100130.34
2019-05-19T04:26:22.446Z,100135.67
2019-05-19T04:27:30.416Z,100142.81
2019-05-19T04:28:37.484Z,100143.98
2019-05-19T04:29:45.289Z,100140.31
2019-05-19T04:30:52.355Z,100141.61
2019-05-19T04:32:00.254Z,100146.37
2019-05-19T04:33:07.643Z,100140.04
2019-05-19T04:34:15.752Z,100141.11
2019-05-19T04:35:23.130Z,100147.54
2019-05-19T04:36:30.713Z,100144.11
2019-05-19T04:37:37.537Z,100149.59
2019-05-19T04:38:45.035Z,100152.86
2019-05-19T04:39:52.465Z,100154.57
2019-05-19T04:41:00.252Z,100151.12
2019-05-19T04:42:07.987Z,100153.75
2019-05-19T04:43:15.645Z,100158.24
2019-05-19T04:44:22.407Z,100159.77
2019-05-19T04:45:29.939Z,100162.98
2019-05-19T04:46:36.705Z,100159.35
2019-05-19T04:47:44.212Z,100157.11
2019-05-19T04:48:51.009Z,100159.85
2019-05-19T04:49:58.830Z,100159.20
2019-05-19T04:51:05.619Z,100159.73
2019-05-19T04:52:13.119Z,100163.33
2019-05-19T04:53:19.913Z,100161.91
2019-05-19T04:54:35.742Z,100157.95
2019-05-19T04:55:42.522Z,100156.53
2019-05-19T04:56:50.149Z,100159.50
2019-05-19T04:57:56.903Z,100161.08
2019-05-19T04:59:04.422Z,100155.73
2019-05-19T05:00:11.447Z,100156.89
2019-05-19T05:01:19.648Z,100158.38
2019-05-19T05:02:26.550Z,100154.05
2019-05-19T05:03:34.064Z,100156.27
2019-05-19T05:04:40.832Z,100161.48
2019-05-19T05:05:48.683Z,100156.00
2019-05-19T05:06:55.466Z,100155.86
2019-05-19T05:08:02.980Z,100155.86
2019-05-19T05:09:09.790Z,100159.59
2019-05-19T05:10:17.813Z,100157.91
2019-05-19T05:11:24.655Z,100154.05
2019-05-19T05:12:32.609Z,100155.86
2019-05-19T05:13:40.048Z,100153.88
2019-05-19T05:14:47.516Z,100156.78
2019-05-19T05:15:54.285Z,100153.59
2019-05-19T05:17:01.793Z,100157.23
2019-05-19T05:18:08.616Z,100158.77
2019-05-19T05:19:16.259Z,100157.70
2019-05-19T05:20:23.126Z,100157.33
2019-05-19T05:21:31.565Z,100159.70
2019-05-19T05:22:38.680Z,100162.97
2019-05-19T05:23:46.186Z,100160.61
2019-05-19T05:24:53.404Z,100161.69
2019-05-19T05:26:01.312Z,100162.13
2019-05-19T05:27:08.595Z,100158.12
2019-05-19T05:28:16.205Z,100162.89
2019-05-19T05:29:22.968Z,100166.61
2019-05-19T05:30:30.503Z,100165.54
2019-05-19T05:31:37.929Z,100159.77
2019-05-19T05:32:45.450Z,100168.88
2019-05-19T05:33:52.518Z,100159.77
2019-05-19T05:35:00.059Z,100165.39
2019-05-19T05:36:07.042Z,100165.61
2019-05-19T05:37:14.859Z,100160.77
2019-05-19T05:38:22.087Z,100160.45
2019-05-19T05:39:29.936Z,100162.28
2019-05-19T05:40:37.422Z,100167.88
2019-05-19T05:41:44.924Z,100163.18
2019-05-19T05:42:51.695Z,100163.57
2019-05-19T05:43:59.934Z,100165.90
2019-05-19T05:45:07.401Z,100163.31
2019-05-19T05:46:15.142Z,100163.09
2019-05-19T05:47:22.668Z,100165.84
2019-05-19T05:48:30.185Z,100166.80
2019-05-19T05:49:36.979Z,100166.19
2019-05-19T05:50:45.223Z,100171.28
2019-05-19T05:51:52.086Z,100161.78
2019-05-19T05:52:59.597Z,100162.66
2019-05-19T05:54:06.742Z,100163.05
2019-05-19T05:55:14.449Z,100166.38
2019-05-19T05:56:21.255Z,100165.44
2019-05-19T05:57:29.412Z,100164.73
2019-05-19T05:58:37.134Z,100165.80
2019-05-19T05:59:44.639Z,100162.87
2019-05-19T06:00:51.774Z,100160.61
2019-05-19T06:01:59.273Z,100164.41
2019-05-19T06:03:06.407Z,100163.59
2019-05-19T06:04:13.907Z,100163.91
2019-05-19T06:05:20.688Z,100165.20
2019-05-19T06:06:28.466Z,100169.88
2019-05-19T06:07:35.599Z,100166.82
2019-05-19T06:08:43.123Z,100167.67
2019-05-19T06:09:50.008Z,100166.19
2019-05-19T06:10:57.950Z,100165.64
2019-05-19T06:12:05.143Z,100164.45
2019-05-19T06:13:12.963Z,100163.59
2019-05-19T06:14:20.193Z,100166.31
2019-05-19T06:15:28.115Z,100161.53
2019-05-19T06:16:35.307Z,100164.31
2019-05-19T06:17:42.826Z,100168.86
2019-05-19T06:18:49.651Z,100173.75
2019-05-19T06:19:57.165Z,100167.61
2019-05-19T06:21:03.970Z,100175.67
2019-05-19T06:22:12.221Z,100175.05
2019-05-19T06:23:19.317Z,100176.61
2019-05-19T06:24:26.816Z,100170.90
2019-05-19T06:25:33.859Z,100171.02
2019-05-19T06:26:41.874Z,100175.67
2019-05-19T06:27:48.994Z,100176.45
2019-05-19T06:28:57.143Z,100174.33
2019-05-19T06:30:04.027Z,100173.82
2019-05-19T06:31:11.561Z,100179.02
2019-05-19T06:32:25.539Z,100179.69
2019-05-19T06:33:33.058Z,100173.06
2019-05-19T06:34:39.849Z,100176.86
2019-05-19T06:35:47.444Z,100176.66
2019-05-19T06:36:55.138Z,100175.67
2019-05-19T06:38:05.147Z,100178.28
2019-05-19T06:39:14.727Z,100179.60
2019-05-19T06:40:23.891Z,100179.07
2019-05-19T06:41:30.981Z,100186.11
2019-05-19T06:42:38.879Z,100182.61
2019-05-19T06:43:45.687Z,100184.92
2019-05-19T06:44:53.547Z,100185.75
2019-05-19T06:46:00.587Z,100187.98
2019-05-19T06:47:08.167Z,100190.37
2019-05-19T06:48:15.186Z,100182.34
2019-05-19T06:49:22.680Z,100180.88
2019-05-19T06:50:29.481Z,100180.12
2019-05-19T06:51:37.504Z,100180.98
2019-05-19T06:52:44.318Z,100182.82
2019-05-19T06:53:52.315Z,100185.54
2019-05-19T06:54:59.608Z,100183.70
2019-05-19T06:56:07.240Z,100183.36
2019-05-19T06:57:14.330Z,100188.92
2019-05-19T06:58:22.001Z,100190.31
2019-05-19T06:59:29.165Z,100187.52
2019-05-19T07:00:37.557Z,100188.08
2019-05-19T07:01:44.819Z,100186.43
2019-05-19T07:02:52.731Z,100186.43
2019-05-19T07:04:00.053Z,100186.13
2019-05-19T07:05:08.862Z,100189.66
2019-05-19T07:06:16.353Z,100191.61
2019-05-19T07:07:24.650Z,100191.69
2019-05-19T07:08:32.024Z,100187.23
2019-05-19T07:09:40.168Z,100185.91
2019-05-19T07:10:47.084Z,100192.75
2019-05-19T07:11:55.076Z,100190.82
2019-05-19T07:13:02.062Z,100187.23
2019-05-19T07:14:10.373Z,100186.37
2019-05-19T07:15:17.758Z,100186.58
2019-05-19T07:16:25.949Z,100181.47
2019-05-19T07:17:32.816Z,100180.42
2019-05-19T07:18:40.737Z,100186.53
2019-05-19T07:19:48.396Z,100183.84
2019-05-19T07:20:56.342Z,100183.09
2019-05-19T07:22:03.223Z,100186.97
2019-05-19T07:23:10.919Z,100184.09
2019-05-19T07:24:17.821Z,100183.78
2019-05-19T07:25:25.456Z,100186.31
2019-05-19T07:26:33.224Z,100182.25
2019-05-19T07:27:40.800Z,100183.81
2019-05-19T07:28:47.605Z,100187.06
2019-05-19T07:29:56.023Z,100188.58
2019-05-19T07:31:03.175Z,100187.83
2019-05-19T07:32:11.259Z,100187.98
2019-05-19T07:33:18.683Z,100181.67
2019-05-19T07:34:26.599Z,100192.11
2019-05-19T07:35:33.659Z,100183.83
2019-05-19T07:36:41.692Z,100191.30
2019-05-19T07:37:48.596Z,100192.86
2019-05-19T07:38:57.263Z,100192.48
2019-05-19T07:40:04.743Z,100192.16
2019-05-19T07:41:12.715Z,100191.24
2019-05-19T07:42:19.811Z,100194.62
2019-05-19T07:43:27.481Z,100188.99
2019-05-19T07:44:34.328Z,100185.70
2019-05-19T07:45:43.454Z,100189.91
2019-05-19T07:46:50.642Z,100188.83
2019-05-19T07:47:58.231Z,100186.05
2019-05-19T07:49:05.673Z,100188.23
2019-05-19T07:50:13.527Z,100186.63
2019-05-19T07:51:21.353Z,100190.83
2019-05-19T07:52:29.046Z,100186.55
2019-05-19T07:53:43.013Z,100186.77
2019-05-19T07:54:46.177Z,100186.34
2019-05-19T07:55:53.271Z,100185.56
2019-05-19T07:57:00.797Z,100193.20
2019-05-19T07:58:08.138Z,100184.27
2019-05-19T07:59:15.737Z,100188.49
2019-05-19T08:00:22.555Z,100173.88
2019-05-19T08:01:30.172Z,100184.69
2019-05-19T08:02:37.355Z,100184.25
2019-05-19T08:03:44.914Z,100182.66
2019-05-19T08:04:51.711Z,100178.91
2019-05-19T08:05:59.280Z,100178.22
2019-05-19T08:07:06.429Z,100179.42
2019-05-19T08:08:13.948Z,100180.35
2019-05-19T08:09:21.338Z,100183.63
2019-05-19T08:10:28.874Z,100186.27
2019-05-19T08:11:36.155Z,100187.58
2019-05-19T08:12:43.845Z,100185.89
2019-05-19T08:13:51.122Z,100179.77
2019-05-19T08:14:59.339Z,100188.80
2019-05-19T08:16:06.249Z,100184.39
2019-05-19T08:17:13.825Z,100189.73
2019-05-19T08:18:20.634Z,100189.09
2019-05-19T08:19:28.567Z,100190.00
2019-05-19T08:20:35.975Z,100189.81
2019-05-19T08:21:43.938Z,100193.72
2019-05-19T08:22:51.523Z,100192.39
2019-05-19T08:24:01.058Z,100188.36
2019-05-19T08:25:08.857Z,100191.91
2019-05-19T08:26:16.495Z,100192.26
2019-05-19T08:27:23.567Z,100187.66
2019-05-19T08:28:31.530Z,100189.74
2019-05-19T08:29:38.351Z,100189.90
2019-05-19T08:30:46.078Z,100190.19
2019-05-19T08:31:53.185Z,100190.31
2019-05-19T08:33:00.847Z,100185.48
2019-05-19T08:34:08.162Z,100183.31
2019-05-19T08:35:16.248Z,100187.98
2019-05-19T08:36:23.079Z,100185.75
2019-05-19T08:37:30.652Z,100188.84
2019-05-19T08:38:37.566Z,100190.88
2019-05-19T08:39:45.439Z,100184.15
2019-05-19T08:40:52.364Z,100191.05
2019-05-19T08:41:59.930Z,100183.72
2019-05-19T08:43:06.849Z,100187.64
2019-05-19T08:44:14.825Z,100185.33
2019-05-19T08:45:22.135Z,100191.47
2019-05-19T08:46:30.359Z,100189.45
2019-05-19T08:47:37.592Z,100188.64
2019-05-19T08:48:45.838Z,100194.52
2019-05-19T08:49:53.672Z,100180.64
2019-05-19T08:51:01.747Z,100180.41
2019-05-19T08:52:09.357Z,100189.76
2019-05-19T08:53:17.070Z,100184.54
2019-05-19T08:54:24.491Z,100179.81
2019-05-19T08:55:32.160Z,100183.23
2019-05-19T08:56:39.093Z,100183.72
2019-05-19T08:57:47.008Z,100185.25
2019-05-19T08:58:54.235Z,100181.94
2019-05-19T09:00:02.382Z,100182.64
2019-05-19T09:01:09.366Z,100182.42
2019-05-19T09:02:17.340Z,100186.66
2019-05-19T09:03:24.457Z,100188.83
2019-05-19T09:04:32.085Z,100176.13
2019-05-19T09:05:39.453Z,100179.34
2019-05-19T09:06:46.974Z,100180.41
2019-05-19T09:07:53.740Z,100181.30
2019-05-19T09:09:01.615Z,100185.66
2019-05-19T09:10:08.928Z,100177.61
2019-05-19T09:11:16.886Z,100182.24
2019-05-19T09:12:23.688Z,100178.30
2019-05-19T09:13:32.117Z,100182.88
2019-05-19T09:14:40.529Z,100180.29
2019-05-19T09:15:48.172Z,100180.02
2019-05-19T09:16:54.959Z,100180.41
2019-05-19T09:18:02.525Z,100179.45
2019-05-19T09:19:09.923Z,100185.25
2019-05-19T09:20:17.775Z,100180.97
2019-05-19T09:21:24.961Z,100179.64
2019-05-19T09:22:32.921Z,100179.98
2019-05-19T09:23:40.066Z,100181.53
2019-05-19T09:24:47.866Z,100178.69
2019-05-19T09:25:55.748Z,100179.23
2019-05-19T09:27:03.323Z,100177.69
2019-05-19T09:28:10.256Z,100178.24
2019-05-19T09:29:18.672Z,100177.48
2019-05-19T09:30:25.498Z,100171.32
2019-05-19T09:31:33.613Z,100176.67
2019-05-19T09:32:40.841Z,100180.73
2019-05-19T09:33:48.456Z,100174.42
2019-05-19T09:34:55.329Z,100175.13
2019-05-19T09:36:03.141Z,100170.62
2019-05-19T09:37:09.965Z,100173.59
2019-05-19T09:38:17.568Z,100170.74
2019-05-19T09:39:24.691Z,100170.53
2019-05-19T09:40:32.275Z,100170.72
2019-05-19T09:41:39.237Z,100166.55
2019-05-19T09:42:46.817Z,100172.41
2019-05-19T09:43:54.049Z,100173.14
2019-05-19T09:45:01.641Z,100170.56
2019-05-19T09:46:08.481Z,100162.60
2019-05-19T09:47:16.449Z,100166.37
2019-05-19T09:48:24.201Z,100169.11
2019-05-19T09:49:35.547Z,100168.73
2019-05-19T09:50:42.719Z,100165.48
2019-05-19T09:51:50.655Z,100170.92
2019-05-19T09:52:57.705Z,100165.79
2019-05-19T09:54:05.333Z,100164.73
2019-05-19T09:55:13.319Z,100165.91
2019-05-19T09:56:20.929Z,100166.66
2019-05-19T09:57:28.102Z,100160.89
2019-05-19T09:58:36.273Z,100153.34
2019-05-19T09:59:43.775Z,100150.85
2019-05-19T10:00:51.844Z,100154.86
2019-05-19T10:01:59.156Z,100155.95
2019-05-19T10:03:06.966Z,100150.85
2019-05-19T10:04:13.731Z,100152.98
2019-05-19T10:05:21.575Z,100145.59
2019-05-19T10:06:28.406Z,100147.09
2019-05-19T10:07:36.453Z,100155.14
2019-05-19T10:08:54.970Z,100151.25
2019-05-19T10:10:23.871Z,100151.93
2019-05-19T10:12:04.579Z,100154.02
2019-05-19T10:13:12.717Z,100155.91
2019-05-19T10:14:19.498Z,100148.07
2019-05-19T10:15:27.484Z,100143.94
2019-05-19T10:16:34.409Z,100147.61
2019-05-19T10:17:42.136Z,100148.59
2019-05-19T10:18:49.278Z,100145.64
2019-05-19T10:19:57.110Z,100145.39
2019-05-19T10:21:04.081Z,100139.83
2019-05-19T10:22:12.023Z,100141.58
2019-05-19T10:23:19.188Z,100140.38
2019-05-19T10:24:26.932Z,100140.63
2019-05-19T10:25:33.945Z,100137.63
2019-05-19T10:26:41.930Z,100139.99
2019-05-19T10:27:48.768Z,100134.47
2019-05-19T10:28:56.311Z,100135.72
2019-05-19T10:30:03.346Z,100125.81
2019-05-19T10:31:10.887Z,100139.89
2019-05-19T10:32:18.024Z,100133.77
2019-05-19T10:33:25.885Z,100134.91
2019-05-19T10:34:32.847Z,100126.49
2019-05-19T10:35:40.708Z,100131.11
2019-05-19T10:36:47.524Z,100134.52
2019-05-19T10:37:55.017Z,100133.47
2019-05-19T10:39:02.206Z,100136.21
2019-05-19T10:40:10.424Z,100129.59
2019-05-19T10:41:17.296Z,100133.45
2019-05-19T10:42:24.785Z,100130.22
2019-05-19T10:43:31.896Z,100130.91
2019-05-19T10:44:39.386Z,100120.08
2019-05-19T10:45:48.167Z,100124.06
2019-05-19T10:46:55.683Z,100126.85
2019-05-19T10:48:02.904Z,100127.55
2019-05-19T10:49:10.409Z,100120.75
2019-05-19T10:50:17.264Z,100127.59
2019-05-19T10:51:24.771Z,100122.48
2019-05-19T10:52:31.519Z,100120.67
2019-05-19T10:53:39.163Z,100126.34
2019-05-19T10:54:46.373Z,100124.91
2019-05-19T10:55:54.765Z,100115.48
2019-05-19T10:57:01.554Z,100113.69
2019-05-19T10:58:09.215Z,100110.94
2019-05-19T10:59:16.507Z,100111.69
2019-05-19T11:00:24.564Z,100120.36
2019-05-19T11:01:31.611Z,100120.33
2019-05-19T11:02:39.530Z,100113.03
2019-05-19T11:03:46.350Z,100116.46
2019-05-19T11:04:54.373Z,100109.03
2019-05-19T11:06:01.407Z,100113.03
2019-05-19T11:07:09.873Z,100107.30
2019-05-19T11:08:17.364Z,100109.34
2019-05-19T11:09:25.558Z,100107.00
2019-05-19T11:10:32.731Z,100113.50
2019-05-19T11:11:40.253Z,100113.16
2019-05-19T11:12:47.727Z,100116.84
2019-05-19T11:14:07.159Z,100110.93
2019-05-19T11:15:14.681Z,100114.56
2019-05-19T11:16:22.914Z,100112.44
2019-05-19T11:17:30.085Z,100105.53
2019-05-19T11:18:37.590Z,100107.95
2019-05-19T11:19:44.347Z,100107.04
2019-05-19T11:20:51.987Z,100108.45
2019-05-19T11:21:59.126Z,100112.24
2019-05-19T11:23:07.131Z,100114.16
2019-05-19T11:24:14.261Z,100107.86
2019-05-19T11:25:33.441Z,100116.26
2019-05-19T11:26:30.671Z,100113.73
2019-05-19T11:27:38.583Z,100116.48
2019-05-19T11:28:45.345Z,100109.46
2019-05-19T11:29:52.965Z,100112.70
2019-05-19T11:31:00.417Z,100110.42
2019-05-19T11:32:08.085Z,100112.36
2019-05-19T11:33:15.204Z,100109.48
2019-05-19T11:34:23.020Z,100107.13
2019-05-19T11:35:29.949Z,100104.81
2019-05-19T11:36:37.459Z,100102.34
2019-05-19T11:37:45.155Z,100102.63
2019-05-19T11:38:53.045Z,100100.54
2019-05-19T11:39:59.898Z,100104.40
2019-05-19T11:41:07.583Z,100102.88
2019-05-19T11:42:14.803Z,100104.23
2019-05-19T11:43:23.139Z,100104.45
2019-05-19T11:44:31.658Z,100098.88
2019-05-19T11:45:39.543Z,100098.69
2019-05-19T11:46:47.187Z,100092.98
2019-05-19T11:47:54.695Z,100092.89
2019-05-19T11:49:02.257Z,100095.81
2019-05-19T11:50:10.494Z,100093.72
2019-05-19T11:51:17.267Z,100092.55
2019-05-19T11:52:24.987Z,100095.33
2019-05-19T11:53:31.827Z,100090.22
2019-05-19T11:54:39.718Z,100090.14
2019-05-19T11:55:46.601Z,100093.06
2019-05-19T11:56:54.223Z,100089.34
2019-05-19T11:58:01.122Z,100086.62
2019-05-19T11:59:08.640Z,100080.25
2019-05-19T12:00:16.074Z,100079.44
2019-05-19T12:01:24.140Z,100080.69
2019-05-19T12:02:30.964Z,100077.58
2019-05-19T12:03:38.442Z,100077.99
2019-05-19T12:04:45.190Z,100079.05
2019-05-19T12:05:53.359Z,100072.84
2019-05-19T12:07:00.177Z,100075.25
2019-05-19T12:08:07.662Z,100077.64
2019-05-19T12:09:14.718Z,100070.14
2019-05-19T12:10:22.214Z,100068.20
2019-05-19T12:11:28.989Z,100072.02
2019-05-19T12:12:36.549Z,100068.44
2019-05-19T12:13:43.302Z,100079.07
2019-05-19T12:14:51.071Z,100071.66
2019-05-19T12:15:57.794Z,100080.55
2019-05-19T12:17:05.645Z,100069.78
2019-05-19T12:18:12.574Z,100073.89
2019-05-19T12:19:20.136Z,100074.70
2019-05-19T12:20:27.103Z,100066.35
2019-05-19T12:21:35.002Z,100067.45
2019-05-19T12:22:41.831Z,100069.53
2019-05-19T12:23:49.983Z,100071.19
2019-05-19T12:24:58.774Z,100068.75
2019-05-19T12:26:20.957Z,100069.04
2019-05-19T12:27:16.079Z,100066.91
2019-05-19T12:28:23.719Z,100069.25
2019-05-19T12:29:30.559Z,100064.00
2019-05-19T12:30:38.076Z,100068.08
2019-05-19T12:31:44.939Z,100075.13
2019-05-19T12:32:52.756Z,100072.05
2019-05-19T12:33:59.544Z,100067.70
2019-05-19T12:35:07.459Z,100060.66
2019-05-19T12:36:14.191Z,100063.60
2019-05-19T12:37:22.032Z,100065.22
2019-05-19T12:38:28.802Z,100064.37
2019-05-19T12:39:36.902Z,100064.96
2019-05-19T12:40:44.141Z,100061.47
2019-05-19T12:41:51.819Z,100058.55
2019-05-19T12:42:58.580Z,100057.61
2019-05-19T12:44:06.715Z,100056.30
2019-05-19T12:45:15.434Z,100058.78
2019-05-19T12:46:23.545Z,100058.38
2019-05-19T12:47:30.308Z,100057.25
2019-05-19T12:48:37.907Z,100056.44
2019-05-19T12:49:44.772Z,100056.88
2019-05-19T12:50:52.257Z,100057.64
2019-05-19T12:51:59.377Z,100050.00
2019-05-19T12:53:07.071Z,100050.19